Hauptseite
METAR-TAF:

METAR-TAF

Flughäfen :

Flughafen München

München, Deutschland

Breite: 48-21N, Länge: 011-47E, Höhe: 453 m

Beobachtung

Neuester Wetterbericht von vor 24 Minuten, um 20:50 UTC
Wind 3 kt aus West/Südwest
Temperatur 1°C
Luftfeuchtigkeit 80%
Luftdruck 1019 hPa
Sichtweite 10 km oder mehr
keine Wolken unter 1500 m und keine Kumulonimbus oder Gewitterwolken

METAR: EDDM 032050Z 25003KT CAVOK 01/M02 Q1019 NOSIG

Zeit: 23:14 (21:14 UTC)

Prognose

Neuester Wetterbericht von vor 4 Stunden und 14 Minuten, um 17:00 UTC
Gültige Prognose vom 03 um 18 UTC bis 04 um 24 UTC
Wind 3 kt aus unterschiedlichen Richtungen
Sichtweite 10 km oder mehr
keine Wolken unter 1500 m und keine Kumulonimbus oder Gewitterwolken
Übergehend zu
vom 04 um 09 UTC bis 04 um 11 UTC
Wind 5 kt aus Ost/Nordost

TAF: EDDM 031700Z 0318/0424 VRB03KT CAVOK BECMG 0409/0411 07005KT

Wetterbeobachtungen und Prognosen von mehr als 4000 Flughäfen (METAR und TAF Bericht).

Die verfügbaren Stationen werden durch gelbe und rote Markierungen auf der Karte dargestellt.

Führen Sie die Maus auf sie, um den Namen der Station zu sehen.

Darauf klicken, um die Beobachtung von Wetterbeobachtungen und Prognosen zu sehen.

Um die Karte zu ändern : klicken Sie auf den grünen Tasten mit einem schwarzen Kreuz Zum Vergrößern, auf den grünen Button mit einem Gedankenstrich zu verkleinern, oder auf die grünen Pfeile für benachbarte Karten.


METAR-TAF: